Nearby METAR Reports

 

K1A5 - Macon/Franklin, North Carolina, USA
Distance from station: WSW 16mi, 25km
Updated: Sun, 20-Oct-2019 4:35am EDT
Overcast
Overcast
 Wind from calm
Wind: Calm
Temperature: 54°F , 12°C
Dew Point: 54°F , 12°C
Humidity: 100%
Barometer: 29.83 inHg , 1010.2 hPa
Clouds: Overcast
Visibility: 10 miles , 16 km
Cloud details: Mostly cloudy 400 ft
Mostly cloudy 1100 ft
Overcast 2700 ft
2019/10/20 08:35 K1A5 200835Z AUTO 00000KT 10SM BKN004 BKN011 OVC027 12/12 A2983 RMK AO2 P0001 T01210115
KAVL - Asheville, North Carolina, USA
Distance from station: ENE 36mi, 59km
Updated: Sun, 20-Oct-2019 4:10am EDT
Mist, Overcast
Mist, Overcast
 Wind from N
Wind: N 7 mph , 11 km/h
Temperature: 54°F , 12°C
Dew Point: 50°F , 10°C
Humidity: 88%
Barometer: 29.79 inHg , 1008.8 hPa
Summary: Mist
Clouds: Overcast
Visibility: 3 miles , 5 km
Cloud details: Mostly cloudy 300 ft
Overcast 1500 ft
2019/10/20 08:10 KAVL 200810Z AUTO 36006KT 3SM BR BKN003 OVC015 12/10 A2979 RMK AO2 T01170100 $
 
KRHP - Andrews, North Carolina, USA
Distance from station: WSW 40mi, 64km
Updated: Sun, 20-Oct-2019 4:35am EDT
Overcast
Overcast
 Wind from calm
Wind: Calm
Temperature: 55°F , 13°C
Dew Point: 55°F , 13°C
Humidity: 100%
Barometer: 29.79 inHg , 1008.8 hPa
Clouds: Overcast
Visibility: 10 miles , 16 km
Cloud details: Partly cloudy 200 ft
Overcast 3400 ft
2019/10/20 08:35 KRHP 200835Z AUTO 00000KT 10SM SCT002 OVC034 13/13 A2979 RMK AO2 T01330133
KLQK - Pickens, South Carolina, USA
Distance from station: SE 42mi, 68km
Updated: Sun, 20-Oct-2019 4:35am EDT
Overcast
Overcast
 Wind from calm
Wind: Calm
Temperature: 57°F , 14°C
Dew Point: 57°F , 14°C
Humidity: 100%
Barometer: 29.70 inHg , 1005.8 hPa
Clouds: Overcast
Visibility: 10 miles , 16 km
Cloud details: Mostly cloudy 3600 ft
Overcast 4900 ft
2019/10/20 08:35 KLQK 200835Z AUTO 00000KT 10SM BKN036 OVC049 14/14 A2970 RMK AO2 T01370137
 
KCEU - Clemson, South Carolina, USA
Distance from station: SSE 46mi, 75km
Updated: Sun, 20-Oct-2019 3:54am EDT
Overcast
Overcast
 Wind from N
Wind: N 6 mph , 9 km/h
Temperature: 57°F , 14°C
Dew Point: 55°F , 13°C
Humidity: 94%
Barometer: 29.71 inHg , 1006.1 hPa
Clouds: Overcast
Visibility: 10 miles , 16 km
Cloud details: Overcast 2000 ft
2019/10/20 07:54 KCEU 200754Z AUTO 01005KT 10SM OVC020 14/13 A2971 RMK AO2 RAE03 SLP058 P0000 T01390128
KTOC - Toccoa, Georgia, USA
Distance from station: S 49mi, 79km
Updated: Sun, 20-Oct-2019 4:35am EDT
Overcast
Overcast
 Wind from NW
Wind: NW 3 mph , 6 km/h
Temperature: 59°F , 15°C
Dew Point: 57°F , 14°C
Humidity: 94%
Barometer: 29.72 inHg , 1006.4 hPa
Clouds: Overcast
Visibility: 10 miles , 16 km
Cloud details: Overcast 2100 ft
2019/10/20 08:35 KTOC 200835Z AUTO 32003KT 10SM OVC021 15/14 A2972 RMK AO2 T01530141